Time;durP1;ratioP1;P1;durP2;ratioP2;P2;SDS_P1;SDS_P2;PMS_P1;PMS_P2;Temp;Humidity;BMP_temperature;BMP_pressure;BME280_temperature;BME280_humidity;BME280_pressure;Samples;Min_cycle;Max_cycle;Signal;HPM_P1;HPM_P2
2022/09/11 00:00:50;;;;;;;66.10;30.80;;;;;;;;;;4932723;29;20034;-88
2022/09/11 00:03:17;;;;;;;55.85;29.45;;;;;;;;;;4916019;28;20028;-88
2022/09/11 00:05:43;;;;;;;62.58;31.48;;;;;;;;;;4933024;29;20082;-88
2022/09/11 00:08:15;;;;;;;66.28;31.63;;;;;;;;;;4938930;29;20035;-89
2022/09/11 00:10:42;;;;;;;55.40;29.50;;;;;;;;;;4950978;28;20031;-88
2022/09/11 00:13:18;;;;;;;59.47;29.67;;;;;;;;;;4934194;28;20483;-88
2022/09/11 00:15:45;;;;;;;57.97;28.30;;;;;;;;;;4931354;29;20042;-88
2022/09/11 00:18:12;;;;;;;57.53;28.42;;;;;;;;;;4929919;28;20103;-89
2022/09/11 00:20:38;;;;;;;55.35;28.17;;;;;;;;;;4933663;29;20050;-89
2022/09/11 00:23:11;;;;;;;58.72;28.05;;;;;;;;;;4945660;28;20502;-89
2022/09/11 00:25:39;;;;;;;57.42;27.55;;;;;;;;;;4949672;28;20078;-88
2022/09/11 00:28:05;;;;;;;60.75;28.55;;;;;;;;;;4932224;29;20031;-89
2022/09/11 00:30:31;;;;;;;54.78;27.65;;;;;;;;;;4932407;29;20054;-88
2022/09/11 00:32:57;;;;;;;54.28;25.88;;;;;;;;;;4917476;29;20039;-89
2022/09/11 00:35:23;;;;;;;53.92;27.50;;;;;;;;;;4917552;29;20035;-89
2022/09/11 00:37:50;;;;;;;54.17;25.73;;;;;;;;;;4935343;29;20498;-88
2022/09/11 00:40:16;;;;;;;46.80;25.00;;;;;;;;;;4934625;28;20059;-89
2022/09/11 00:42:42;;;;;;;52.42;25.42;;;;;;;;;;4933419;29;20090;-88
2022/09/11 00:45:19;;;;;;;52.72;24.88;;;;;;;;;;4912607;29;20155;-88
2022/09/11 00:47:45;;;;;;;45.67;24.00;;;;;;;;;;4949233;28;20038;-88
2022/09/11 00:50:16;;;;;;;45.40;25.58;;;;;;;;;;4934072;28;20431;-89
2022/09/11 00:52:48;;;;;;;56.42;23.33;;;;;;;;;;4930680;29;20055;-89
2022/09/11 00:55:17;;;;;;;50.42;26.08;;;;;;;;;;4947525;28;20062;-89
2022/09/11 00:58:04;;;;;;;53.20;25.27;;;;;;;;;;4949718;28;20027;-88
2022/09/11 01:00:30;;;;;;;48.05;23.15;;;;;;;;;;4931169;29;20045;-88
2022/09/11 01:02:57;;;;;;;42.63;22.70;;;;;;;;;;4915721;29;20029;-89
2022/09/11 01:05:23;;;;;;;48.20;22.27;;;;;;;;;;4933262;29;20383;-89
2022/09/11 01:07:53;;;;;;;45.97;23.65;;;;;;;;;;4932907;29;20410;-88
2022/09/11 01:10:19;;;;;;;49.95;23.10;;;;;;;;;;4949229;28;20016;-88
2022/09/11 01:13:04;;;;;;;47.85;22.35;;;;;;;;;;4948360;28;20035;-88
2022/09/11 01:15:35;;;;;;;41.13;21.75;;;;;;;;;;4948453;28;20074;-88
2022/09/11 01:18:04;;;;;;;47.15;22.08;;;;;;;;;;4931876;29;20055;-88
2022/09/11 01:20:49;;;;;;;44.13;21.23;;;;;;;;;;4931060;29;20487;-88
2022/09/11 01:23:18;;;;;;;40.08;21.27;;;;;;;;;;4930351;29;20030;-88
2022/09/11 01:25:52;;;;;;;48.78;21.92;;;;;;;;;;4931061;29;20031;-88
2022/09/11 01:28:22;;;;;;;47.83;21.58;;;;;;;;;;4946042;28;20031;-88
2022/09/11 01:30:51;;;;;;;42.75;22.23;;;;;;;;;;4948827;28;20030;-88
2022/09/11 01:33:23;;;;;;;47.13;22.10;;;;;;;;;;4926337;29;20028;-89
2022/09/11 01:35:49;;;;;;;45.20;21.15;;;;;;;;;;4936735;29;20517;-88
2022/09/11 01:38:17;;;;;;;43.92;22.80;;;;;;;;;;4932888;29;20027;-88
2022/09/11 01:40:53;;;;;;;45.33;22.23;;;;;;;;;;4951297;28;20094;-88
2022/09/11 01:43:29;;;;;;;46.77;22.47;;;;;;;;;;4933235;29;20543;-89
2022/09/11 01:45:56;;;;;;;48.22;21.77;;;;;;;;;;4936575;29;20034;-88
2022/09/11 01:48:29;;;;;;;43.55;21.02;;;;;;;;;;4948302;28;20471;-88
2022/09/11 01:50:58;;;;;;;46.90;23.45;;;;;;;;;;4931627;29;20038;-89
2022/09/11 01:53:27;;;;;;;48.45;23.83;;;;;;;;;;4950342;28;20110;-88
2022/09/11 01:56:01;;;;;;;54.05;23.60;;;;;;;;;;4933708;29;20114;-88
2022/09/11 01:58:31;;;;;;;39.75;20.77;;;;;;;;;;4949697;28;20482;-89
2022/09/11 02:01:12;;;;;;;52.60;22.00;;;;;;;;;;4935579;28;20130;-88
2022/09/11 02:03:44;;;;;;;41.10;19.92;;;;;;;;;;4931229;29;20031;-88
2022/09/11 02:06:14;;;;;;;44.00;20.83;;;;;;;;;;4949021;28;20479;-89
2022/09/11 02:08:43;;;;;;;43.28;20.92;;;;;;;;;;4933414;29;20050;-88
2022/09/11 02:11:11;;;;;;;37.45;20.55;;;;;;;;;;4933254;29;20038;-89
2022/09/11 02:13:45;;;;;;;40.72;19.20;;;;;;;;;;4933841;29;20031;-89
2022/09/11 02:16:11;;;;;;;42.90;19.92;;;;;;;;;;4936345;28;20503;-88
2022/09/11 02:18:54;;;;;;;46.70;22.55;;;;;;;;;;4939596;29;20050;-88
2022/09/11 02:21:20;;;;;;;43.28;22.20;;;;;;;;;;4935668;29;20027;-88
2022/09/11 02:23:46;;;;;;;44.67;20.63;;;;;;;;;;4936817;29;20589;-89
2022/09/11 02:26:12;;;;;;;40.33;20.08;;;;;;;;;;4938136;29;20327;-89
2022/09/11 02:28:39;;;;;;;41.92;19.88;;;;;;;;;;4937294;29;20027;-88
2022/09/11 02:31:06;;;;;;;40.75;19.25;;;;;;;;;;4935980;29;20035;-89
2022/09/11 02:33:36;;;;;;;43.00;19.65;;;;;;;;;;4921437;29;20074;-88
2022/09/11 02:36:17;;;;;;;37.05;18.92;;;;;;;;;;4926959;29;20039;-88
2022/09/11 02:38:55;;;;;;;44.10;22.10;;;;;;;;;;4937970;28;20089;-88
2022/09/11 02:41:27;;;;;;;46.30;20.48;;;;;;;;;;4910839;28;20143;-88
2022/09/11 02:44:18;;;;;;;44.00;22.13;;;;;;;;;;4898058;29;20045;-88
2022/09/11 02:46:58;;;;;;;44.90;21.13;;;;;;;;;;4898532;29;20099;-88
2022/09/11 02:49:50;;;;;;;46.88;22.25;;;;;;;;;;4900861;29;20020;-88
2022/09/11 02:52:32;;;;;;;49.45;22.02;;;;;;;;;;4916733;29;20060;-89
2022/09/11 02:55:07;;;;;;;46.42;21.83;;;;;;;;;;4915463;29;20028;-89
2022/09/11 02:57:36;;;;;;;46.95;21.02;;;;;;;;;;4894724;29;20380;-89
2022/09/11 03:00:04;;;;;;;45.03;21.02;;;;;;;;;;4917147;29;20142;-89
2022/09/11 03:02:32;;;;;;;45.67;21.77;;;;;;;;;;4900151;29;20040;-89
2022/09/11 03:04:59;;;;;;;47.00;20.95;;;;;;;;;;4918585;29;20052;-88
2022/09/11 03:07:25;;;;;;;40.47;20.88;;;;;;;;;;4914557;29;20043;-89
2022/09/11 03:09:51;;;;;;;53.88;22.60;;;;;;;;;;4892084;29;20035;-88
2022/09/11 03:12:17;;;;;;;43.63;20.63;;;;;;;;;;4917730;29;20028;-88
2022/09/11 03:14:44;;;;;;;41.08;20.45;;;;;;;;;;4915489;29;20032;-88
2022/09/11 03:17:10;;;;;;;44.80;22.67;;;;;;;;;;4884565;29;20043;-88
2022/09/11 03:19:36;;;;;;;34.75;18.63;;;;;;;;;;4884259;29;20040;-88
2022/09/11 03:22:02;;;;;;;35.17;18.13;;;;;;;;;;4890585;29;20047;-88
2022/09/11 03:24:28;;;;;;;41.65;20.05;;;;;;;;;;4900154;29;20421;-89
2022/09/11 03:26:54;;;;;;;41.40;20.30;;;;;;;;;;4918452;29;20020;-89
2022/09/11 03:29:20;;;;;;;41.03;19.95;;;;;;;;;;4898357;29;20032;-89
2022/09/11 03:31:47;;;;;;;34.30;17.90;;;;;;;;;;4887492;29;20388;-89
2022/09/11 03:34:13;;;;;;;38.08;18.50;;;;;;;;;;4911958;29;20019;-89
2022/09/11 03:36:39;;;;;;;44.35;18.77;;;;;;;;;;4899225;29;20036;-89
2022/09/11 03:39:05;;;;;;;35.42;18.13;;;;;;;;;;4883783;29;20404;-89
2022/09/11 03:41:38;;;;;;;35.70;19.63;;;;;;;;;;4922067;28;20040;-88
2022/09/11 03:44:04;;;;;;;33.38;18.00;;;;;;;;;;4921100;28;20094;-88
2022/09/11 03:46:30;;;;;;;42.17;17.58;;;;;;;;;;4968345;28;20063;-89
2022/09/11 03:48:56;;;;;;;35.83;17.80;;;;;;;;;;4936806;29;20478;-88
2022/09/11 03:51:25;;;;;;;32.60;17.67;;;;;;;;;;4919878;28;20035;-89
2022/09/11 03:53:52;;;;;;;34.78;17.70;;;;;;;;;;4946655;28;20070;-88
2022/09/11 03:56:18;;;;;;;30.45;16.38;;;;;;;;;;4937223;29;20713;-90
2022/09/11 03:58:44;;;;;;;29.98;16.13;;;;;;;;;;4951495;28;20328;-89
2022/09/11 04:01:11;;;;;;;31.02;16.98;;;;;;;;;;4933509;29;20036;-89
2022/09/11 04:03:38;;;;;;;35.35;16.77;;;;;;;;;;4934676;29;20034;-89
2022/09/11 04:06:04;;;;;;;35.03;15.93;;;;;;;;;;4937821;29;20491;-89
2022/09/11 04:08:32;;;;;;;29.30;16.00;;;;;;;;;;4918984;29;20050;-88
2022/09/11 04:10:59;;;;;;;29.05;16.23;;;;;;;;;;4953543;28;20519;-89
2022/09/11 04:13:26;;;;;;;37.47;16.38;;;;;;;;;;4935654;29;20078;-88
2022/09/11 04:15:52;;;;;;;34.53;16.80;;;;;;;;;;4938758;28;20103;-88
2022/09/11 04:18:18;;;;;;;29.73;15.73;;;;;;;;;;4918506;29;20063;-88
2022/09/11 04:20:44;;;;;;;33.67;16.60;;;;;;;;;;4925408;28;20047;-88
2022/09/11 04:23:10;;;;;;;34.90;17.50;;;;;;;;;;4919115;29;20023;-89
2022/09/11 04:25:37;;;;;;;32.70;16.63;;;;;;;;;;4923795;28;20415;-88
2022/09/11 04:28:03;;;;;;;37.28;17.42;;;;;;;;;;4917885;29;20031;-89
2022/09/11 04:30:30;;;;;;;28.67;15.82;;;;;;;;;;4922169;28;20039;-89
2022/09/11 04:32:56;;;;;;;32.92;17.85;;;;;;;;;;4938983;28;20394;-89
2022/09/11 04:35:22;;;;;;;31.20;16.40;;;;;;;;;;4936444;29;20046;-89
2022/09/11 04:37:48;;;;;;;39.95;18.08;;;;;;;;;;4915595;28;20076;-88
2022/09/11 04:40:14;;;;;;;35.08;18.13;;;;;;;;;;4922410;28;20134;-88
2022/09/11 04:42:40;;;;;;;33.17;18.45;;;;;;;;;;4936855;29;20035;-87
2022/09/11 04:45:07;;;;;;;35.75;18.30;;;;;;;;;;4949019;28;20146;-88
2022/09/11 04:47:33;;;;;;;36.80;19.65;;;;;;;;;;4920219;29;20035;-88
2022/09/11 04:50:01;;;;;;;35.92;18.25;;;;;;;;;;4951240;28;20046;-89
2022/09/11 04:52:27;;;;;;;51.28;18.02;;;;;;;;;;4917425;29;20040;-89
2022/09/11 04:54:53;;;;;;;39.03;19.67;;;;;;;;;;4932936;29;20158;-89
2022/09/11 04:57:19;;;;;;;31.95;16.38;;;;;;;;;;4920009;28;20113;-88
2022/09/11 04:59:46;;;;;;;27.42;16.73;;;;;;;;;;4933266;29;20469;-88
2022/09/11 05:02:13;;;;;;;31.75;16.10;;;;;;;;;;4934625;28;20569;-88
2022/09/11 05:04:40;;;;;;;33.42;17.20;;;;;;;;;;4935267;29;20046;-89
2022/09/11 05:07:06;;;;;;;29.45;16.65;;;;;;;;;;4918727;29;20059;-88
2022/09/11 05:09:32;;;;;;;41.00;16.45;;;;;;;;;;4936148;29;20035;-88
2022/09/11 05:11:58;;;;;;;34.60;16.70;;;;;;;;;;4934851;29;20032;-88
2022/09/11 05:14:24;;;;;;;33.38;16.60;;;;;;;;;;4935323;29;20039;-88
2022/09/11 05:16:51;;;;;;;32.55;16.40;;;;;;;;;;4921759;28;20046;-89
2022/09/11 05:19:17;;;;;;;29.50;16.35;;;;;;;;;;4935688;29;20423;-89
2022/09/11 05:21:44;;;;;;;31.10;17.48;;;;;;;;;;4921453;29;20032;-89
2022/09/11 05:24:10;;;;;;;33.00;16.10;;;;;;;;;;4950701;28;20023;-89
2022/09/11 05:26:37;;;;;;;33.45;17.10;;;;;;;;;;4938588;29;20116;-90
2022/09/11 05:29:06;;;;;;;33.42;16.23;;;;;;;;;;4935295;29;20028;-89
2022/09/11 05:31:32;;;;;;;32.70;16.75;;;;;;;;;;4936204;29;20034;-89
2022/09/11 05:33:59;;;;;;;34.33;17.70;;;;;;;;;;4939314;29;20035;-88
2022/09/11 05:36:25;;;;;;;33.35;17.35;;;;;;;;;;4934286;28;20463;-89
2022/09/11 05:38:52;;;;;;;29.05;16.25;;;;;;;;;;4936431;29;20035;-89
2022/09/11 05:41:18;;;;;;;38.70;17.40;;;;;;;;;;4920133;28;20055;-89
2022/09/11 05:43:44;;;;;;;33.92;17.73;;;;;;;;;;4934967;29;20360;-89
2022/09/11 05:46:11;;;;;;;34.25;17.50;;;;;;;;;;4932428;29;20038;-89
2022/09/11 05:48:38;;;;;;;34.20;17.02;;;;;;;;;;4951310;28;20122;-89
2022/09/11 05:51:09;;;;;;;31.83;17.23;;;;;;;;;;4933973;28;20027;-88
2022/09/11 05:53:36;;;;;;;38.42;18.17;;;;;;;;;;4937062;29;20578;-89
2022/09/11 05:56:10;;;;;;;39.63;17.25;;;;;;;;;;4950689;28;20439;-89
2022/09/11 05:58:36;;;;;;;38.15;19.15;;;;;;;;;;4949494;29;20031;-90
2022/09/11 06:01:03;;;;;;;47.70;21.80;;;;;;;;;;4918755;28;20039;-89
2022/09/11 06:03:32;;;;;;;43.42;21.67;;;;;;;;;;4944493;28;20032;-89
2022/09/11 06:06:00;;;;;;;47.15;20.90;;;;;;;;;;4930861;28;20045;-89
2022/09/11 06:08:26;;;;;;;37.33;19.23;;;;;;;;;;4932743;29;20031;-89
2022/09/11 06:10:52;;;;;;;28.73;18.30;;;;;;;;;;4921877;28;20515;-89
2022/09/11 06:13:18;;;;;;;29.48;17.05;;;;;;;;;;4938320;29;20440;-89
2022/09/11 06:15:48;;;;;;;30.52;17.10;;;;;;;;;;4933091;29;20138;-89
2022/09/11 06:18:14;;;;;;;30.02;16.55;;;;;;;;;;4934716;28;20032;-89
2022/09/11 06:20:40;;;;;;;23.02;15.30;;;;;;;;;;4917813;29;20039;-89
2022/09/11 06:23:08;;;;;;;25.63;15.48;;;;;;;;;;4931824;28;20027;-89
2022/09/11 06:25:35;;;;;;;23.00;14.38;;;;;;;;;;4930167;29;20039;-89
2022/09/11 06:28:01;;;;;;;21.92;14.30;;;;;;;;;;4913262;28;20110;-89
2022/09/11 06:30:27;;;;;;;21.90;14.00;;;;;;;;;;4917791;29;20118;-89
2022/09/11 06:32:55;;;;;;;20.23;13.60;;;;;;;;;;4918550;29;20039;-89
2022/09/11 06:35:24;;;;;;;17.55;13.20;;;;;;;;;;4935245;29;20027;-89
2022/09/11 06:37:50;;;;;;;22.33;12.15;;;;;;;;;;4930847;28;20031;-89
2022/09/11 06:40:17;;;;;;;19.38;12.02;;;;;;;;;;4919798;28;20046;-89
2022/09/11 06:42:43;;;;;;;21.48;13.30;;;;;;;;;;4931658;28;20040;-89
2022/09/11 06:45:09;;;;;;;22.88;11.77;;;;;;;;;;4932425;29;20035;-89
2022/09/11 06:47:35;;;;;;;18.27;11.60;;;;;;;;;;4931881;28;20031;-89
2022/09/11 06:50:01;;;;;;;12.07;9.07;;;;;;;;;;4934271;29;20116;-88
2022/09/11 06:52:27;;;;;;;14.95;9.90;;;;;;;;;;4918751;29;20462;-89
2022/09/11 06:54:53;;;;;;;13.25;8.45;;;;;;;;;;4934374;29;20031;-89
2022/09/11 06:57:19;;;;;;;15.00;8.15;;;;;;;;;;4919614;28;20027;-89
2022/09/11 06:59:46;;;;;;;16.63;9.68;;;;;;;;;;4933596;29;20046;-89
2022/09/11 07:02:12;;;;;;;13.82;9.02;;;;;;;;;;4920402;28;20122;-89
2022/09/11 07:04:38;;;;;;;12.52;7.68;;;;;;;;;;4951713;28;20094;-89
2022/09/11 07:07:04;;;;;;;15.82;8.27;;;;;;;;;;4934198;28;20102;-89
2022/09/11 07:09:30;;;;;;;13.00;8.32;;;;;;;;;;4915693;29;20131;-89
2022/09/11 07:11:56;;;;;;;9.07;6.88;;;;;;;;;;4938530;28;20024;-89
2022/09/11 07:14:22;;;;;;;14.55;6.15;;;;;;;;;;4928237;28;20031;-89
2022/09/11 07:16:53;;;;;;;10.63;5.95;;;;;;;;;;4921011;29;20027;-89
2022/09/11 07:19:19;;;;;;;7.72;5.43;;;;;;;;;;4919851;29;20034;-89
2022/09/11 07:21:45;;;;;;;9.82;5.82;;;;;;;;;;4918980;29;20085;-89
2022/09/11 07:24:11;;;;;;;8.02;4.90;;;;;;;;;;4924490;29;20027;-89
2022/09/11 07:26:37;;;;;;;7.35;4.40;;;;;;;;;;4932710;29;20110;-89
2022/09/11 07:29:04;;;;;;;8.43;5.97;;;;;;;;;;4937457;29;20046;-89
2022/09/11 07:31:31;;;;;;;8.52;4.80;;;;;;;;;;4927489;29;20047;-89
2022/09/11 07:33:57;;;;;;;9.82;5.00;;;;;;;;;;4941090;29;20039;-89
2022/09/11 07:36:25;;;;;;;9.13;5.60;;;;;;;;;;4924169;29;20090;-90
2022/09/11 07:38:53;;;;;;;6.22;4.63;;;;;;;;;;4934702;29;20028;-89
2022/09/11 07:41:21;;;;;;;6.00;4.53;;;;;;;;;;4937661;28;20110;-89
2022/09/11 07:43:51;;;;;;;5.68;3.50;;;;;;;;;;4936726;29;20031;-89
2022/09/11 07:46:17;;;;;;;6.25;3.38;;;;;;;;;;4950760;28;20261;-89
2022/09/11 07:48:43;;;;;;;6.07;3.10;;;;;;;;;;4937919;29;20082;-89
2022/09/11 07:51:20;;;;;;;8.60;3.28;;;;;;;;;;4923463;29;20063;-90
2022/09/11 07:53:47;;;;;;;6.35;3.28;;;;;;;;;;4940667;29;20106;-89
2022/09/11 07:56:18;;;;;;;6.38;3.67;;;;;;;;;;4931847;29;20103;-89
2022/09/11 07:58:44;;;;;;;5.80;3.08;;;;;;;;;;4937240;29;20035;-89
2022/09/11 08:01:12;;;;;;;7.20;2.78;;;;;;;;;;4920212;29;20283;-89
2022/09/11 08:03:38;;;;;;;5.20;2.70;;;;;;;;;;4931200;29;20070;-89
2022/09/11 08:06:06;;;;;;;8.43;2.88;;;;;;;;;;4935646;29;20031;-89
2022/09/11 08:08:33;;;;;;;5.95;2.97;;;;;;;;;;4930908;29;20407;-89
2022/09/11 08:11:04;;;;;;;6.55;3.08;;;;;;;;;;4939262;29;20027;-89
2022/09/11 08:13:30;;;;;;;10.93;2.78;;;;;;;;;;4936693;29;20035;-89
2022/09/11 08:15:56;;;;;;;6.22;2.90;;;;;;;;;;4921038;29;20110;-90
2022/09/11 08:18:22;;;;;;;11.85;2.22;;;;;;;;;;4919880;29;20075;-89
2022/09/11 08:20:48;;;;;;;6.38;2.22;;;;;;;;;;4936172;29;20082;-89
2022/09/11 08:23:15;;;;;;;3.83;2.00;;;;;;;;;;4932336;29;20224;-89
2022/09/11 08:25:41;;;;;;;7.50;2.60;;;;;;;;;;4915588;29;20107;-89
2022/09/11 08:28:08;;;;;;;8.88;2.60;;;;;;;;;;4917616;29;20034;-89
2022/09/11 08:30:37;;;;;;;3.45;2.17;;;;;;;;;;4920660;28;20039;-89
2022/09/11 08:33:08;;;;;;;8.85;2.85;;;;;;;;;;4935882;28;20034;-89
2022/09/11 08:35:34;;;;;;;5.32;2.15;;;;;;;;;;4936469;28;20036;-89
2022/09/11 08:38:02;;;;;;;3.63;2.38;;;;;;;;;;4951846;28;20031;-89
2022/09/11 08:40:29;;;;;;;9.68;2.30;;;;;;;;;;4936801;28;20027;-89
2022/09/11 08:42:56;;;;;;;9.60;2.53;;;;;;;;;;4931338;29;20138;-89
2022/09/11 08:45:25;;;;;;;3.60;2.38;;;;;;;;;;4931483;29;20088;-90
2022/09/11 08:47:53;;;;;;;6.63;2.05;;;;;;;;;;4946530;28;20020;-89
2022/09/11 08:50:20;;;;;;;6.65;2.28;;;;;;;;;;4931190;29;20032;-88
2022/09/11 08:52:47;;;;;;;2.70;2.13;;;;;;;;;;4932522;29;20015;-89
2022/09/11 08:55:14;;;;;;;3.35;2.03;;;;;;;;;;4915503;29;20126;-89
2022/09/11 08:57:46;;;;;;;6.95;2.10;;;;;;;;;;4929320;29;20023;-89
2022/09/11 09:00:18;;;;;;;8.27;2.75;;;;;;;;;;4924890;29;20040;-89
2022/09/11 09:02:47;;;;;;;5.50;2.33;;;;;;;;;;4932624;29;20040;-89
2022/09/11 09:05:31;;;;;;;9.65;1.88;;;;;;;;;;4934637;29;20054;-88
2022/09/11 09:08:05;;;;;;;5.55;2.10;;;;;;;;;;4927019;29;20487;-89
2022/09/11 09:10:32;;;;;;;6.85;2.03;;;;;;;;;;4929077;29;20038;-89
2022/09/11 09:13:07;;;;;;;7.47;2.17;;;;;;;;;;4937348;29;20130;-89
2022/09/11 09:15:40;;;;;;;5.20;2.03;;;;;;;;;;4944617;28;20043;-89
2022/09/11 09:18:16;;;;;;;3.03;2.10;;;;;;;;;;4931407;29;20740;-89
2022/09/11 09:20:46;;;;;;;6.07;1.63;;;;;;;;;;4931799;29;20491;-89
2022/09/11 09:23:17;;;;;;;4.18;1.85;;;;;;;;;;4933056;29;20712;-89
2022/09/11 09:25:43;;;;;;;2.92;1.75;;;;;;;;;;4932633;29;20024;-89
2022/09/11 09:28:20;;;;;;;6.15;1.60;;;;;;;;;;4912837;29;20032;-89
2022/09/11 09:30:50;;;;;;;3.38;1.95;;;;;;;;;;4946090;28;20036;-89
2022/09/11 09:33:50;;;;;;;5.65;2.20;;;;;;;;;;4934344;29;20032;-89
2022/09/11 09:36:19;;;;;;;4.18;2.05;;;;;;;;;;4880628;29;20057;-89
2022/09/11 09:38:47;;;;;;;5.97;2.10;;;;;;;;;;4937791;29;20078;-89
2022/09/11 09:41:22;;;;;;;8.02;2.38;;;;;;;;;;4929605;28;20078;-89
2022/09/11 09:44:03;;;;;;;5.90;1.77;;;;;;;;;;4930304;29;20028;-89
2022/09/11 09:46:43;;;;;;;2.72;1.17;;;;;;;;;;4932610;29;20027;-90
2022/09/11 09:49:10;;;;;;;5.07;1.38;;;;;;;;;;4947910;28;20038;-90
2022/09/11 09:51:38;;;;;;;3.00;1.27;;;;;;;;;;4928851;29;20023;-89
2022/09/11 09:54:04;;;;;;;2.85;1.30;;;;;;;;;;4930757;29;20079;-90
2022/09/11 09:56:32;;;;;;;3.83;1.35;;;;;;;;;;4933433;29;20463;-89
2022/09/11 09:59:08;;;;;;;3.88;1.83;;;;;;;;;;4938328;29;20038;-90
2022/09/11 10:01:43;;;;;;;5.57;1.55;;;;;;;;;;4941916;28;20048;-90
2022/09/11 10:04:11;;;;;;;5.53;2.15;;;;;;;;;;4931008;29;20732;-90
2022/09/11 10:06:37;;;;;;;3.13;1.63;;;;;;;;;;4930879;29;20054;-90
2022/09/11 10:09:03;;;;;;;14.05;1.80;;;;;;;;;;4933271;29;20496;-90
2022/09/11 10:11:29;;;;;;;7.22;1.88;;;;;;;;;;4932511;29;20146;-90
2022/09/11 10:13:56;;;;;;;13.02;2.40;;;;;;;;;;4933238;29;20079;-90
2022/09/11 10:16:26;;;;;;;6.25;2.70;;;;;;;;;;4915407;29;20123;-90
2022/09/11 10:18:53;;;;;;;5.97;2.92;;;;;;;;;;4928225;29;20032;-90
2022/09/11 10:21:32;;;;;;;7.53;3.28;;;;;;;;;;4915211;29;20055;-90
2022/09/11 10:23:58;;;;;;;6.43;3.03;;;;;;;;;;4933776;29;20032;-90
2022/09/11 10:26:31;;;;;;;8.50;3.20;;;;;;;;;;4930142;29;20023;-90
2022/09/11 10:29:06;;;;;;;9.43;3.65;;;;;;;;;;4929788;29;20482;-90
2022/09/11 10:31:32;;;;;;;9.20;3.57;;;;;;;;;;4946680;29;20023;-90
2022/09/11 10:34:00;;;;;;;9.60;3.55;;;;;;;;;;4932250;29;20280;-90
2022/09/11 10:36:27;;;;;;;9.63;3.53;;;;;;;;;;4930537;29;20138;-89
2022/09/11 10:38:54;;;;;;;8.25;3.50;;;;;;;;;;4935335;29;20093;-90
2022/09/11 10:41:22;;;;;;;8.65;3.60;;;;;;;;;;4934685;28;21797;-90
2022/09/11 10:43:49;;;;;;;6.85;4.05;;;;;;;;;;4932585;29;20028;-89
2022/09/11 10:46:27;;;;;;;8.57;3.50;;;;;;;;;;4933646;29;20035;-90
2022/09/11 10:48:56;;;;;;;5.28;3.45;;;;;;;;;;4946423;28;20123;-89
2022/09/11 10:51:23;;;;;;;8.00;3.50;;;;;;;;;;4934364;29;20055;-90
2022/09/11 10:53:52;;;;;;;6.20;3.42;;;;;;;;;;4931403;29;20038;-89
2022/09/11 10:56:19;;;;;;;6.93;3.28;;;;;;;;;;4937212;29;20027;-89
2022/09/11 10:58:47;;;;;;;7.40;2.83;;;;;;;;;;4918163;29;20044;-89
2022/09/11 11:01:14;;;;;;;7.10;3.20;;;;;;;;;;4935328;29;20032;-89
2022/09/11 11:03:40;;;;;;;6.85;2.65;;;;;;;;;;4933710;29;20031;-89
2022/09/11 11:06:18;;;;;;;6.90;2.97;;;;;;;;;;4933697;29;20027;-89
2022/09/11 11:08:45;;;;;;;8.80;3.33;;;;;;;;;;4932962;29;20122;-89
2022/09/11 11:11:31;;;;;;;7.43;3.13;;;;;;;;;;4934286;29;20554;-89
2022/09/11 11:14:10;;;;;;;5.88;2.80;;;;;;;;;;4928717;29;20062;-91
2022/09/11 11:16:46;;;;;;;4.22;2.28;;;;;;;;;;4932065;29;20046;-89
2022/09/11 11:19:24;;;;;;;4.30;2.53;;;;;;;;;;4937616;29;20464;-90
2022/09/11 11:21:59;;;;;;;5.72;2.80;;;;;;;;;;4951398;28;20039;-89
2022/09/11 11:24:25;;;;;;;6.95;2.63;;;;;;;;;;4931682;29;20024;-90
2022/09/11 11:27:16;;;;;;;4.43;2.50;;;;;;;;;;4935600;29;20063;-90
2022/09/11 11:29:49;;;;;;;4.05;2.75;;;;;;;;;;4934003;29;20095;-89
2022/09/11 11:32:29;;;;;;;3.80;1.92;;;;;;;;;;4934355;29;20445;-90
2022/09/11 11:35:00;;;;;;;6.20;1.92;;;;;;;;;;4950042;28;20040;-89
2022/09/11 11:37:34;;;;;;;5.20;2.00;;;;;;;;;;4933567;29;20043;-90
2022/09/11 11:40:04;;;;;;;3.15;2.67;;;;;;;;;;4933387;29;20051;-90
2022/09/11 11:42:33;;;;;;;3.85;1.90;;;;;;;;;;4917388;28;20071;-89
2022/09/11 11:45:06;;;;;;;4.30;2.20;;;;;;;;;;4896983;29;20046;-89
2022/09/11 11:47:36;;;;;;;6.35;2.00;;;;;;;;;;4913393;29;20052;-89
2022/09/11 11:50:17;;;;;;;4.05;2.08;;;;;;;;;;4915783;29;20536;-89
2022/09/11 11:52:52;;;;;;;5.88;2.88;;;;;;;;;;4913514;29;20028;-90
2022/09/11 11:55:26;;;;;;;3.10;1.75;;;;;;;;;;4916549;29;20040;-90
2022/09/11 11:58:10;;;;;;;4.20;1.90;;;;;;;;;;4917359;29;20031;-89
2022/09/11 12:00:39;;;;;;;1.70;1.50;;;;;;;;;;4902427;29;20568;-89
2022/09/11 12:03:13;;;;;;;4.45;2.13;;;;;;;;;;4902239;29;20498;-89
2022/09/11 12:05:39;;;;;;;3.50;1.80;;;;;;;;;;4899230;29;20020;-90
2022/09/11 12:08:10;;;;;;;3.83;1.90;;;;;;;;;;4883894;29;20043;-90
2022/09/11 12:10:38;;;;;;;3.75;1.75;;;;;;;;;;4906185;29;20032;-90
2022/09/11 12:13:11;;;;;;;4.15;1.25;;;;;;;;;;4899499;29;20024;-90
2022/09/11 12:15:38;;;;;;;2.72;1.50;;;;;;;;;;4903462;29;20024;-90
2022/09/11 12:18:22;;;;;;;4.50;1.92;;;;;;;;;;4898851;29;20040;-90
2022/09/11 12:20:48;;;;;;;2.65;1.80;;;;;;;;;;4919763;29;20039;-90
2022/09/11 12:23:34;;;;;;;5.25;2.67;;;;;;;;;;4904408;29;20040;-90
2022/09/11 12:26:18;;;;;;;4.57;2.30;;;;;;;;;;4900743;29;20107;-90
2022/09/11 12:28:44;;;;;;;3.90;1.63;;;;;;;;;;4910286;29;20032;-90
2022/09/11 12:31:11;;;;;;;1.80;1.60;;;;;;;;;;4883587;29;20048;-90
2022/09/11 12:33:40;;;;;;;4.13;1.27;;;;;;;;;;4902480;29;20119;-90
2022/09/11 12:36:28;;;;;;;1.75;1.30;;;;;;;;;;4904247;29;20107;-91
2022/09/11 12:38:56;;;;;;;10.13;2.80;;;;;;;;;;4877080;29;20075;-90
2022/09/11 12:41:30;;;;;;;7.15;2.90;;;;;;;;;;4904816;28;20136;-91
2022/09/11 12:43:56;;;;;;;4.50;3.05;;;;;;;;;;4927698;29;20028;-91
2022/09/11 12:46:23;;;;;;;7.82;3.75;;;;;;;;;;4934142;29;20035;-90
2022/09/11 12:49:00;;;;;;;4.18;2.90;;;;;;;;;;4950062;28;20089;-90
2022/09/11 12:51:33;;;;;;;6.07;3.90;;;;;;;;;;4936666;29;20368;-90
2022/09/11 12:54:00;;;;;;;6.72;3.00;;;;;;;;;;4951486;28;20531;-90
2022/09/11 12:56:27;;;;;;;5.47;3.25;;;;;;;;;;4932190;29;20046;-90
2022/09/11 12:58:59;;;;;;;5.90;3.60;;;;;;;;;;4942110;29;20039;-90
2022/09/11 13:01:30;;;;;;;5.82;3.30;;;;;;;;;;4936106;29;20023;-90
2022/09/11 13:03:59;;;;;;;5.07;3.63;;;;;;;;;;4935816;28;20039;-90
2022/09/11 13:06:35;;;;;;;6.32;3.53;;;;;;;;;;4947818;28;20027;-90
2022/09/11 13:09:02;;;;;;;11.15;3.65;;;;;;;;;;4952167;28;20028;-90
2022/09/11 13:11:39;;;;;;;7.82;3.60;;;;;;;;;;4933169;29;20499;-90
2022/09/11 13:14:25;;;;;;;10.23;4.28;;;;;;;;;;4933279;29;20033;-90
2022/09/11 13:16:51;;;;;;;;;;;;;;;;;;4936285;29;20046;-90
2022/09/11 13:19:19;;;;;;;7.43;3.83;;;;;;;;;;4953510;28;19918;-89
2022/09/11 13:21:48;;;;;;;4.82;3.10;;;;;;;;;;4937320;28;20031;-90
2022/09/11 13:24:27;;;;;;;7.07;3.30;;;;;;;;;;4929288;29;20413;-90
2022/09/11 13:27:09;;;;;;;5.40;3.13;;;;;;;;;;4949563;28;20419;-90
2022/09/11 13:29:36;;;;;;;7.00;3.13;;;;;;;;;;4952026;28;20027;-90
2022/09/11 13:32:10;;;;;;;5.50;3.08;;;;;;;;;;4934724;29;20030;-90
2022/09/11 13:34:36;;;;;;;7.30;2.70;;;;;;;;;;4946301;28;20032;-91
2022/09/11 13:37:08;;;;;;;6.68;3.17;;;;;;;;;;4940899;29;20517;-90
2022/09/11 13:39:35;;;;;;;6.38;2.72;;;;;;;;;;4949470;28;20514;-89
2022/09/11 13:42:01;;;;;;;4.30;2.50;;;;;;;;;;4936773;28;20497;-89
2022/09/11 13:44:41;;;;;;;4.65;2.42;;;;;;;;;;4950671;28;20031;-90
2022/09/11 13:47:27;;;;;;;5.75;2.58;;;;;;;;;;4936053;29;20498;-90
2022/09/11 13:49:55;;;;;;;3.75;1.92;;;;;;;;;;4945379;28;20059;-90
2022/09/11 13:52:22;;;;;;;6.13;2.15;;;;;;;;;;4929482;29;20039;-90
2022/09/11 13:54:50;;;;;;;6.03;2.20;;;;;;;;;;4930871;29;20046;-90
2022/09/11 13:57:17;;;;;;;5.40;1.92;;;;;;;;;;4933287;28;20061;-90
2022/09/11 13:59:45;;;;;;;3.80;1.85;;;;;;;;;;4950807;28;20441;-90
2022/09/11 14:02:17;;;;;;;3.95;1.83;;;;;;;;;;4934575;28;20031;-90
2022/09/11 14:04:43;;;;;;;3.70;2.10;;;;;;;;;;4933146;28;20414;-90
2022/09/11 14:07:17;;;;;;;2.83;2.13;;;;;;;;;;4936017;28;20151;-90
2022/09/11 14:09:47;;;;;;;6.03;1.67;;;;;;;;;;4950082;28;20070;-89
2022/09/11 14:12:14;;;;;;;4.68;2.17;;;;;;;;;;4932378;28;20090;-90
2022/09/11 14:14:45;;;;;;;4.45;1.80;;;;;;;;;;4925645;29;20046;-90
2022/09/11 14:17:12;;;;;;;5.40;1.95;;;;;;;;;;4934727;29;20024;-90
2022/09/11 14:19:42;;;;;;;4.97;2.00;;;;;;;;;;4938122;28;20520;-91
2022/09/11 14:22:15;;;;;;;2.55;2.05;;;;;;;;;;4943309;29;20086;-90
2022/09/11 14:24:50;;;;;;;3.83;2.35;;;;;;;;;;4941839;28;20131;-90
2022/09/11 14:27:33;;;;;;;3.85;1.80;;;;;;;;;;4938448;28;20031;-89
2022/09/11 14:30:00;;;;;;;5.82;2.33;;;;;;;;;;4937338;29;20598;-90
2022/09/11 14:32:36;;;;;;;4.32;1.65;;;;;;;;;;4927989;28;20039;-91
2022/09/11 14:35:08;;;;;;;4.03;2.03;;;;;;;;;;4937478;29;20118;-90
2022/09/11 14:37:35;;;;;;;4.05;2.10;;;;;;;;;;4950464;28;20086;-89
2022/09/11 14:40:05;;;;;;;6.00;1.90;;;;;;;;;;4953893;28;20027;-89
2022/09/11 14:42:40;;;;;;;3.95;2.70;;;;;;;;;;4943886;28;20048;-90
2022/09/11 14:45:24;;;;;;;3.85;1.85;;;;;;;;;;4910987;29;20408;-90